createdAt,value
2022-08-26T00:00:53.030Z,100028.50
2022-08-26T00:03:23.360Z,100028.13
2022-08-26T00:05:53.577Z,100024.19
2022-08-26T00:08:23.113Z,100019.84
2022-08-26T00:10:51.746Z,100024.66
2022-08-26T00:13:20.258Z,100014.31
2022-08-26T00:15:49.263Z,100007.28
2022-08-26T00:18:22.250Z,100012.56
2022-08-26T00:20:52.980Z,100013.59
2022-08-26T00:23:24.194Z,100003.25
2022-08-26T00:25:53.101Z,100008.53
2022-08-26T00:28:26.119Z,100003.59
2022-08-26T00:30:58.676Z,100005.13
2022-08-26T00:33:27.200Z,100005.78
2022-08-26T00:35:57.157Z,100006.03
2022-08-26T00:38:26.522Z,100005.66
2022-08-26T00:40:57.663Z,100011.50
2022-08-26T00:43:26.847Z,100004.72
2022-08-26T00:45:59.568Z,99997.88
2022-08-26T00:48:34.169Z,100000.22
2022-08-26T00:51:10.718Z,100007.72
2022-08-26T00:53:46.390Z,100005.03
2022-08-26T00:56:22.116Z,99996.19
2022-08-26T00:58:52.220Z,100006.53
2022-08-26T01:01:23.116Z,99999.56
2022-08-26T01:03:51.746Z,99988.28
2022-08-26T01:06:22.653Z,99993.69
2022-08-26T01:08:53.181Z,99990.56
2022-08-26T01:11:22.347Z,99987.28
2022-08-26T01:13:54.927Z,99989.16
2022-08-26T01:16:25.827Z,99986.09
2022-08-26T01:18:59.909Z,99984.09
2022-08-26T01:21:36.285Z,99987.59
2022-08-26T01:24:11.804Z,99992.03
2022-08-26T01:26:44.961Z,99996.22
2022-08-26T01:29:18.090Z,99991.25
2022-08-26T01:31:48.852Z,99998.75
2022-08-26T01:34:21.632Z,100003.78
2022-08-26T01:36:52.959Z,100004.59
2022-08-26T01:39:22.966Z,99998.59
2022-08-26T01:41:55.069Z,99998.00
2022-08-26T01:44:27.726Z,99994.72
2022-08-26T01:46:58.997Z,99986.88
2022-08-26T01:49:29.395Z,99988.13
2022-08-26T01:52:01.237Z,99997.25
2022-08-26T01:54:33.588Z,99992.31
2022-08-26T01:57:03.528Z,99980.34
2022-08-26T01:59:32.496Z,99989.47
2022-08-26T02:02:01.125Z,99992.84
2022-08-26T02:04:34.489Z,100000.34
2022-08-26T02:07:07.495Z,99990.81
2022-08-26T02:09:41.077Z,99997.69
2022-08-26T02:12:11.958Z,99991.72
2022-08-26T02:14:43.987Z,99989.25
2022-08-26T02:17:14.031Z,99988.41
2022-08-26T02:19:46.711Z,99992.41
2022-08-26T02:22:19.237Z,99995.91
2022-08-26T02:24:52.978Z,99987.22
2022-08-26T02:27:24.257Z,99997.84
2022-08-26T02:29:57.236Z,99996.78
2022-08-26T02:32:27.087Z,99997.22
2022-08-26T02:34:55.695Z,99994.97
2022-08-26T02:37:24.424Z,99998.94
2022-08-26T02:39:55.358Z,99998.09
2022-08-26T02:42:25.665Z,99998.78
2022-08-26T02:44:54.964Z,99997.34
2022-08-26T02:47:24.882Z,99996.72
2022-08-26T02:49:53.764Z,99997.19
2022-08-26T02:52:22.719Z,99995.78
2022-08-26T02:54:51.378Z,99989.53
2022-08-26T02:57:21.283Z,99968.94
2022-08-26T02:59:50.930Z,99979.66
2022-08-26T03:02:19.415Z,99979.28
2022-08-26T03:04:58.010Z,99980.53
2022-08-26T03:07:30.842Z,99980.13
2022-08-26T03:09:59.935Z,99982.22
2022-08-26T03:12:29.858Z,99968.16
2022-08-26T03:14:58.272Z,99977.53
2022-08-26T03:17:27.022Z,99972.56
2022-08-26T03:19:57.286Z,99968.69
2022-08-26T03:22:27.126Z,99953.41
2022-08-26T03:24:55.966Z,99970.75
2022-08-26T03:27:24.379Z,99958.56
2022-08-26T03:30:11.719Z,99965.81
2022-08-26T03:32:41.538Z,99961.69
2022-08-26T03:35:10.893Z,99967.31
2022-08-26T03:37:39.907Z,99966.69
2022-08-26T03:40:10.697Z,99965.06
2022-08-26T03:42:39.674Z,99961.75
2022-08-26T03:45:12.221Z,99968.38
2022-08-26T03:47:41.426Z,99962.03
2022-08-26T03:50:12.410Z,99971.13
2022-08-26T03:52:43.892Z,99968.88
2022-08-26T03:55:12.914Z,99975.06
2022-08-26T03:57:42.467Z,99980.06
2022-08-26T04:00:18.408Z,99979.22
2022-08-26T04:02:51.322Z,99972.41
2022-08-26T04:05:23.959Z,99970.16
2022-08-26T04:07:52.527Z,99976.34
2022-08-26T04:10:29.253Z,99977.19
2022-08-26T04:12:59.197Z,99974.69
2022-08-26T04:15:29.558Z,99976.78
2022-08-26T04:17:57.947Z,99974.31
2022-08-26T04:20:26.752Z,99974.31
2022-08-26T04:22:55.231Z,99977.22
2022-08-26T04:25:24.326Z,99977.66
2022-08-26T04:27:53.065Z,99968.16
2022-08-26T04:30:21.858Z,99981.38
2022-08-26T04:32:51.734Z,99978.94
2022-08-26T04:35:25.666Z,99975.63
2022-08-26T04:37:55.665Z,99979.97
2022-08-26T04:40:26.779Z,99979.34
2022-08-26T04:42:55.823Z,99980.16
2022-08-26T04:45:25.498Z,99972.69
2022-08-26T04:47:57.078Z,99980.84
2022-08-26T04:50:26.894Z,99985.31
2022-08-26T04:52:55.533Z,99982.75
2022-08-26T04:55:37.351Z,99984.72
2022-08-26T04:58:10.458Z,99976.81
2022-08-26T05:00:39.817Z,99979.81
2022-08-26T05:03:10.799Z,99977.06
2022-08-26T05:05:41.385Z,99970.56
2022-08-26T05:08:11.334Z,99970.72
2022-08-26T05:10:44.763Z,99977.94
2022-08-26T05:13:15.581Z,99987.81
2022-08-26T05:15:45.221Z,99974.50
2022-08-26T05:18:16.870Z,99974.44
2022-08-26T05:20:48.879Z,99976.44
2022-08-26T05:23:17.842Z,99966.72
2022-08-26T05:25:49.229Z,99974.94
2022-08-26T05:28:20.697Z,99979.69
2022-08-26T05:30:50.088Z,99983.19
2022-08-26T05:33:20.458Z,99981.69
2022-08-26T05:35:49.641Z,99976.69
2022-08-26T05:38:20.621Z,99983.03
2022-08-26T05:40:52.960Z,99978.41
2022-08-26T05:43:22.927Z,99982.06
2022-08-26T05:45:52.313Z,99977.84
2022-08-26T05:48:24.356Z,99966.72
2022-08-26T05:50:54.613Z,99971.34
2022-08-26T05:53:25.958Z,99977.19
2022-08-26T05:55:56.387Z,99973.19
2022-08-26T05:58:28.040Z,99971.19
2022-08-26T06:01:02.852Z,99973.16
2022-08-26T06:03:34.866Z,99969.28
2022-08-26T06:06:06.650Z,99978.81
2022-08-26T06:08:37.383Z,99969.41
2022-08-26T06:11:08.731Z,99970.81
2022-08-26T06:13:47.875Z,99965.66
2022-08-26T06:16:19.701Z,99965.50
2022-08-26T06:18:50.868Z,99968.19
2022-08-26T06:21:21.375Z,99974.94
2022-08-26T06:24:09.627Z,99977.63
2022-08-26T06:26:38.610Z,99980.56
2022-08-26T06:29:11.179Z,99975.44
2022-08-26T06:31:52.061Z,99970.88
2022-08-26T06:34:22.389Z,99981.69
2022-08-26T06:36:52.253Z,99983.47
2022-08-26T06:39:21.712Z,99990.19
2022-08-26T06:41:50.810Z,99976.81
2022-08-26T06:44:20.033Z,99981.28
2022-08-26T06:46:50.262Z,99974.97
2022-08-26T06:49:25.722Z,99974.41
2022-08-26T06:51:59.020Z,99972.47
2022-08-26T06:54:27.970Z,99976.13
2022-08-26T06:56:57.133Z,99972.69
2022-08-26T06:59:26.082Z,99972.34
2022-08-26T07:01:55.159Z,99975.28
2022-08-26T07:04:25.126Z,99977.31
2022-08-26T07:06:58.207Z,99977.16
2022-08-26T07:09:29.421Z,99972.84
2022-08-26T07:11:58.364Z,99973.16
2022-08-26T07:14:27.197Z,99964.00
2022-08-26T07:16:56.534Z,99976.22
2022-08-26T07:19:31.129Z,99980.25
2022-08-26T07:22:03.384Z,99983.66
2022-08-26T07:24:32.751Z,99980.78
2022-08-26T07:27:02.954Z,99989.59
2022-08-26T07:29:34.591Z,99981.38
2022-08-26T07:32:03.456Z,99980.59
2022-08-26T07:34:33.148Z,99986.59
2022-08-26T07:37:03.648Z,99982.84
2022-08-26T07:39:32.968Z,99981.97
2022-08-26T07:42:07.298Z,99974.66
2022-08-26T07:44:37.187Z,99978.78
2022-08-26T07:47:10.535Z,99975.69
2022-08-26T07:49:54.792Z,99979.31
2022-08-26T07:52:27.023Z,99983.97
2022-08-26T07:54:56.803Z,99973.72
2022-08-26T07:57:25.384Z,99985.66
2022-08-26T07:59:55.213Z,99970.41
2022-08-26T08:02:25.144Z,99977.69
2022-08-26T08:04:54.742Z,99974.06
2022-08-26T08:07:38.594Z,99981.81
2022-08-26T08:10:15.301Z,99983.25
2022-08-26T08:12:44.657Z,99979.31
2022-08-26T08:15:15.625Z,99976.75
2022-08-26T08:17:44.795Z,99971.91
2022-08-26T08:20:15.181Z,99967.56
2022-08-26T08:22:45.369Z,99971.69
2022-08-26T08:25:15.876Z,99973.75
2022-08-26T08:27:45.999Z,99970.91
2022-08-26T08:30:15.526Z,99970.50
2022-08-26T08:32:51.503Z,99970.13
2022-08-26T08:35:22.745Z,99969.72
2022-08-26T08:37:54.884Z,99953.47
2022-08-26T08:40:25.497Z,99965.50
2022-08-26T08:42:59.269Z,99965.06
2022-08-26T08:45:36.562Z,99962.66
2022-08-26T08:48:08.808Z,99962.72
2022-08-26T08:50:46.043Z,99962.56
2022-08-26T08:53:18.941Z,99945.28
2022-08-26T08:56:03.258Z,99955.50
2022-08-26T08:58:48.453Z,99952.06
2022-08-26T09:01:27.355Z,99950.50
2022-08-26T09:04:10.866Z,99953.22
2022-08-26T09:06:41.026Z,99945.31
2022-08-26T09:09:17.955Z,99948.66
2022-08-26T09:11:46.417Z,99951.16
2022-08-26T09:14:15.148Z,99949.78
2022-08-26T09:16:52.919Z,99946.88
2022-08-26T09:19:30.390Z,99946.38
2022-08-26T09:22:02.272Z,99946.44
2022-08-26T09:24:41.901Z,99948.09
2022-08-26T09:27:37.784Z,99937.75
2022-08-26T09:30:07.527Z,99936.69
2022-08-26T09:32:40.387Z,99939.97
2022-08-26T09:35:13.033Z,99944.88
2022-08-26T09:40:24.239Z,99944.88
2022-08-26T09:43:11.749Z,99935.69
2022-08-26T09:45:50.802Z,99942.75
2022-08-26T09:48:32.514Z,99937.56
2022-08-26T09:51:07.178Z,99939.47
2022-08-26T09:53:51.097Z,99930.44
2022-08-26T09:56:28.383Z,99936.19
2022-08-26T09:58:58.427Z,99931.81
2022-08-26T10:01:32.922Z,99922.78
2022-08-26T10:04:11.100Z,99928.22
2022-08-26T10:06:43.434Z,99918.91
2022-08-26T10:09:15.109Z,99917.25
2022-08-26T10:11:49.714Z,99911.22
2022-08-26T10:14:25.080Z,99913.66
2022-08-26T10:16:58.431Z,99913.94
2022-08-26T10:19:41.610Z,99908.47
2022-08-26T10:22:27.453Z,99914.72
2022-08-26T10:24:58.970Z,99902.34
2022-08-26T10:27:53.410Z,99907.16
2022-08-26T10:30:24.212Z,99905.72
2022-08-26T10:32:57.499Z,99903.84
2022-08-26T10:35:27.278Z,99902.69
2022-08-26T10:37:59.893Z,99902.69
2022-08-26T10:40:32.031Z,99902.97
2022-08-26T10:43:11.442Z,99892.97
2022-08-26T10:45:45.663Z,99896.19
2022-08-26T10:48:19.589Z,99892.56
2022-08-26T10:50:49.838Z,99894.41
2022-08-26T10:53:25.409Z,99884.41
2022-08-26T10:56:02.996Z,99886.09
2022-08-26T10:58:56.504Z,99885.75
2022-08-26T11:01:47.081Z,99885.25
2022-08-26T11:04:48.168Z,99885.25
2022-08-26T11:07:44.309Z,99882.56
2022-08-26T11:10:48.787Z,99872.72
2022-08-26T11:13:17.493Z,99876.25
2022-08-26T11:16:09.641Z,99880.75
2022-08-26T11:18:46.400Z,99862.97
2022-08-26T11:21:49.380Z,99862.03
2022-08-26T11:24:45.412Z,99855.66
2022-08-26T11:27:57.902Z,99860.25
2022-08-26T11:30:46.328Z,99856.53
2022-08-26T11:33:58.171Z,99858.63
2022-08-26T11:36:38.748Z,99851.72
2022-08-26T11:39:19.620Z,99847.78
2022-08-26T11:41:49.753Z,99830.31
2022-08-26T11:44:24.193Z,99847.78
2022-08-26T11:46:58.777Z,99846.56
2022-08-26T11:49:28.491Z,99840.44
2022-08-26T11:52:13.042Z,99846.59
2022-08-26T11:54:41.918Z,99838.28
2022-08-26T11:57:14.844Z,99838.94
2022-08-26T11:59:45.970Z,99825.97
2022-08-26T12:02:18.244Z,99825.06
2022-08-26T12:04:49.603Z,99828.16
2022-08-26T12:07:25.190Z,99821.25
2022-08-26T12:09:56.606Z,99816.22
2022-08-26T12:12:32.898Z,99817.69
2022-08-26T12:15:17.937Z,99813.25
2022-08-26T12:17:52.925Z,99810.16
2022-08-26T12:20:46.118Z,99810.16
2022-08-26T12:23:38.541Z,99808.72
2022-08-26T12:26:10.550Z,99806.06
2022-08-26T12:28:44.910Z,99806.53
2022-08-26T12:31:13.647Z,99802.41
2022-08-26T12:33:46.144Z,99806.25
2022-08-26T12:36:15.408Z,99802.03
2022-08-26T12:38:45.408Z,99794.53
2022-08-26T12:41:14.144Z,99788.47
2022-08-26T12:43:45.186Z,99784.53
2022-08-26T12:46:17.801Z,99780.94
2022-08-26T12:48:50.214Z,99784.19
2022-08-26T12:51:25.009Z,99777.06
2022-08-26T12:53:55.678Z,99772.00
2022-08-26T12:56:31.452Z,99765.47
2022-08-26T12:59:12.210Z,99764.75
2022-08-26T13:01:44.604Z,99764.63
2022-08-26T13:04:35.399Z,99763.25
2022-08-26T13:07:24.848Z,99752.34
2022-08-26T13:09:56.609Z,99760.72
2022-08-26T13:12:30.081Z,99751.28
2022-08-26T13:15:00.013Z,99746.03
2022-08-26T13:17:30.123Z,99747.63
2022-08-26T13:20:03.559Z,99746.63
2022-08-26T13:22:33.124Z,99740.13
2022-08-26T13:25:03.037Z,99731.88
2022-08-26T13:27:31.583Z,99731.59
2022-08-26T13:30:00.628Z,99727.22
2022-08-26T13:32:30.085Z,99725.28
2022-08-26T13:34:59.775Z,99720.09
2022-08-26T13:37:34.484Z,99721.78
2022-08-26T13:40:07.176Z,99718.56
2022-08-26T13:42:35.858Z,99717.13
2022-08-26T13:45:04.882Z,99715.72
2022-08-26T13:47:33.383Z,99706.09
2022-08-26T13:50:01.848Z,99705.47
2022-08-26T13:52:31.203Z,99701.97
2022-08-26T13:55:00.847Z,99694.81
2022-08-26T13:57:31.397Z,99690.16
2022-08-26T14:00:00.419Z,99686.41
2022-08-26T14:02:31.305Z,99695.59
2022-08-26T14:04:59.816Z,99689.25
2022-08-26T14:07:28.233Z,99680.66
2022-08-26T14:09:56.829Z,99692.34
2022-08-26T14:12:25.421Z,99692.75
2022-08-26T14:14:55.318Z,99688.47
2022-08-26T14:17:24.832Z,99683.44
2022-08-26T14:19:54.280Z,99678.91
2022-08-26T14:22:24.002Z,99675.16
2022-08-26T14:24:52.509Z,99671.44
2022-08-26T14:27:21.002Z,99683.06
2022-08-26T14:29:49.569Z,99676.78
2022-08-26T14:32:25.517Z,99672.38
2022-08-26T14:34:54.906Z,99677.84
2022-08-26T14:37:23.798Z,99682.69
2022-08-26T14:39:52.972Z,99674.63
2022-08-26T14:42:24.345Z,99682.63
2022-08-26T14:44:57.665Z,99667.03
2022-08-26T14:47:27.693Z,99685.25
2022-08-26T14:49:56.412Z,99685.97
2022-08-26T14:52:25.698Z,99685.25
2022-08-26T14:54:54.960Z,99682.25
2022-08-26T14:57:24.363Z,99681.31
2022-08-26T14:59:53.373Z,99676.25
2022-08-26T15:02:33.629Z,99678.75
2022-08-26T15:05:04.704Z,99672.75
2022-08-26T15:07:33.379Z,99674.47
2022-08-26T15:10:02.412Z,99674.59
2022-08-26T15:12:32.060Z,99665.75
2022-08-26T15:15:00.548Z,99676.34
2022-08-26T15:17:29.396Z,99668.16
2022-08-26T15:19:57.917Z,99658.41
2022-08-26T15:22:29.413Z,99666.50
2022-08-26T15:24:59.267Z,99658.75
2022-08-26T15:27:27.888Z,99659.00
2022-08-26T15:29:56.478Z,99660.13
2022-08-26T15:32:24.954Z,99657.53
2022-08-26T15:34:53.479Z,99663.38
2022-08-26T15:37:21.896Z,99659.69
2022-08-26T15:39:52.307Z,99659.06
2022-08-26T15:42:21.922Z,99663.13
2022-08-26T15:44:50.539Z,99651.09
2022-08-26T15:47:19.507Z,99649.88
2022-08-26T15:49:48.159Z,99653.75
2022-08-26T15:52:17.763Z,99648.75
2022-08-26T15:54:46.247Z,99650.94
2022-08-26T15:57:19.084Z,99641.88
2022-08-26T15:59:48.378Z,99644.63
2022-08-26T16:02:16.863Z,99642.22
2022-08-26T16:04:45.380Z,99648.00
2022-08-26T16:07:14.206Z,99642.09
2022-08-26T16:09:42.693Z,99637.22
2022-08-26T16:12:11.214Z,99637.81
2022-08-26T16:14:43.840Z,99640.28
2022-08-26T16:17:12.657Z,99630.50
2022-08-26T16:19:41.290Z,99632.44
2022-08-26T16:22:09.819Z,99633.16
2022-08-26T16:24:39.050Z,99633.72
2022-08-26T16:27:07.784Z,99633.16
2022-08-26T16:29:36.314Z,99630.19
2022-08-26T16:32:09.169Z,99623.41
2022-08-26T16:34:37.808Z,99615.31
2022-08-26T16:37:15.817Z,99623.97
2022-08-26T16:39:45.170Z,99628.91
2022-08-26T16:42:13.810Z,99617.78
2022-08-26T16:44:45.780Z,99617.88
2022-08-26T16:47:16.906Z,99620.94
2022-08-26T16:49:45.847Z,99613.66
2022-08-26T16:52:14.371Z,99619.72
2022-08-26T16:54:43.163Z,99621.47
2022-08-26T16:57:13.263Z,99618.50
2022-08-26T16:59:42.809Z,99625.16
2022-08-26T17:02:12.100Z,99621.25
2022-08-26T17:04:42.072Z,99614.34
2022-08-26T17:07:16.612Z,99619.47
2022-08-26T17:09:45.109Z,99610.00
2022-08-26T17:12:13.609Z,99623.44
2022-08-26T17:14:42.325Z,99618.69
2022-08-26T17:17:14.211Z,99620.94
2022-08-26T17:19:47.286Z,99620.06
2022-08-26T17:22:16.737Z,99615.63
2022-08-26T17:24:45.899Z,99618.88
2022-08-26T17:27:14.263Z,99624.50
2022-08-26T17:29:42.694Z,99611.88
2022-08-26T17:32:11.255Z,99615.19
2022-08-26T17:34:39.844Z,99620.97
2022-08-26T17:37:09.740Z,99610.09
2022-08-26T17:39:42.771Z,99612.78
2022-08-26T17:42:12.518Z,99607.66
2022-08-26T17:44:41.261Z,99606.75
2022-08-26T17:47:09.722Z,99609.72
2022-08-26T17:49:38.155Z,99598.63
2022-08-26T17:52:11.346Z,99603.91
2022-08-26T17:54:41.369Z,99600.31
2022-08-26T17:57:10.660Z,99599.09
2022-08-26T17:59:40.938Z,99603.22
2022-08-26T18:02:09.774Z,99602.59
2022-08-26T18:04:38.173Z,99602.69
2022-08-26T18:07:07.297Z,99617.38
2022-08-26T18:09:35.842Z,99619.06
2022-08-26T18:12:06.680Z,99624.59
2022-08-26T18:14:35.684Z,99627.00
2022-08-26T18:17:04.220Z,99613.91
2022-08-26T18:19:33.065Z,99623.13
2022-08-26T18:22:01.548Z,99622.28
2022-08-26T18:24:32.433Z,99622.56
2022-08-26T18:27:00.868Z,99614.75
2022-08-26T18:29:30.833Z,99613.69
2022-08-26T18:31:59.303Z,99616.44
2022-08-26T18:34:31.813Z,99624.38
2022-08-26T18:37:00.628Z,99620.59
2022-08-26T18:39:29.147Z,99613.84
2022-08-26T18:41:57.639Z,99622.91
2022-08-26T18:44:26.045Z,99618.91
2022-08-26T18:46:56.272Z,99611.81
2022-08-26T18:49:26.354Z,99629.28
2022-08-26T18:51:55.170Z,99633.09
2022-08-26T18:54:23.862Z,99628.50
2022-08-26T18:56:52.523Z,99628.22
2022-08-26T18:59:29.712Z,99632.06
2022-08-26T19:02:00.979Z,99633.19
2022-08-26T19:04:29.500Z,99636.75
2022-08-26T19:06:57.979Z,99637.84
2022-08-26T19:09:27.291Z,99640.84
2022-08-26T19:14:30.521Z,99637.06
2022-08-26T19:17:01.771Z,99653.38
2022-08-26T19:19:30.672Z,99659.69
2022-08-26T19:21:59.355Z,99664.84
2022-08-26T19:24:28.288Z,99665.94
2022-08-26T19:26:59.336Z,99668.09
2022-08-26T19:29:30.798Z,99670.53
2022-08-26T19:32:00.966Z,99667.25
2022-08-26T19:34:29.793Z,99674.03
2022-08-26T19:36:58.613Z,63291.66
2022-08-26T19:39:28.115Z,63291.66
2022-08-26T19:41:56.651Z,63291.66
2022-08-26T19:44:43.314Z,63291.66
2022-08-26T19:47:16.801Z,63291.66
2022-08-26T19:49:45.912Z,99681.50
2022-08-26T19:52:14.507Z,99669.44
2022-08-26T19:54:43.226Z,99681.16
2022-08-26T19:57:11.879Z,99681.34
2022-08-26T19:59:41.903Z,99688.38
2022-08-26T20:02:11.376Z,99680.19
2022-08-26T20:04:42.127Z,99689.94
2022-08-26T20:07:14.136Z,99696.41
2022-08-26T20:09:47.176Z,99682.53
2022-08-26T20:12:16.525Z,99681.91
2022-08-26T20:14:45.135Z,63291.66
2022-08-26T20:17:13.597Z,99680.41
2022-08-26T20:20:00.597Z,99658.88
2022-08-26T20:22:29.182Z,99662.13
2022-08-26T20:24:58.457Z,99653.38
2022-08-26T20:27:37.670Z,99647.06
2022-08-26T20:30:09.454Z,99640.72
2022-08-26T20:32:38.440Z,99635.38
2022-08-26T20:35:11.846Z,99638.44
2022-08-26T20:37:40.782Z,99647.69
2022-08-26T20:40:11.401Z,99656.09
2022-08-26T20:42:39.931Z,99665.53
2022-08-26T20:45:09.866Z,99664.75
2022-08-26T20:47:38.398Z,99673.09
2022-08-26T20:50:09.558Z,99668.19
2022-08-26T20:52:38.074Z,99645.56
2022-08-26T20:55:07.513Z,99662.63
2022-08-26T20:57:36.029Z,99658.78
2022-08-26T21:00:05.961Z,99663.53
2022-08-26T21:02:35.453Z,99655.31
2022-08-26T21:05:03.990Z,99666.13
2022-08-26T21:07:33.947Z,99670.19
2022-08-26T21:10:02.547Z,99667.41
2022-08-26T21:12:31.578Z,99667.84
2022-08-26T21:15:00.830Z,99660.47
2022-08-26T21:17:29.593Z,99657.63
2022-08-26T21:19:58.383Z,99663.06
2022-08-26T21:22:27.076Z,99654.06
2022-08-26T21:24:57.000Z,99667.25
2022-08-26T21:27:26.369Z,99665.06
2022-08-26T21:29:56.766Z,99661.44
2022-08-26T21:32:25.148Z,99658.34
2022-08-26T21:34:56.293Z,99650.66
2022-08-26T21:37:24.907Z,99626.56
2022-08-26T21:39:54.887Z,99635.56
2022-08-26T21:42:26.827Z,99644.69
2022-08-26T21:44:55.800Z,99640.53
2022-08-26T21:47:25.139Z,99648.56
2022-08-26T21:49:54.060Z,99648.47
2022-08-26T21:52:22.712Z,99642.56
2022-08-26T21:54:51.210Z,99661.00
2022-08-26T21:57:20.920Z,99660.03
2022-08-26T21:59:50.843Z,99661.72
2022-08-26T22:02:19.755Z,99648.81
2022-08-26T22:04:49.214Z,99647.00
2022-08-26T22:07:20.452Z,99653.47
2022-08-26T22:09:49.890Z,99645.06
2022-08-26T22:12:19.366Z,99650.69
2022-08-26T22:14:48.397Z,99661.41
2022-08-26T22:17:18.390Z,99665.31
2022-08-26T22:19:46.898Z,99665.63
2022-08-26T22:22:16.099Z,99653.56
2022-08-26T22:24:44.878Z,99633.59
2022-08-26T22:27:14.520Z,99643.34
2022-08-26T22:29:43.002Z,99630.69
2022-08-26T22:32:11.588Z,99637.25
2022-08-26T22:34:42.169Z,99642.06
2022-08-26T22:37:10.789Z,99640.19
2022-08-26T22:39:39.647Z,99634.44
2022-08-26T22:42:08.252Z,99629.06
2022-08-26T22:44:37.867Z,99626.56
2022-08-26T22:47:06.560Z,99629.91
2022-08-26T22:49:35.061Z,99624.88
2022-08-26T22:52:05.390Z,99625.38
2022-08-26T22:54:36.569Z,99615.75
2022-08-26T22:57:05.509Z,99623.63
2022-08-26T22:59:34.122Z,99632.78
2022-08-26T23:02:02.617Z,99630.78
2022-08-26T23:04:31.200Z,99626.69
2022-08-26T23:07:05.132Z,99627.63
2022-08-26T23:09:33.773Z,99623.63
2022-08-26T23:12:02.273Z,99620.13
2022-08-26T23:14:32.978Z,99618.97
2022-08-26T23:17:01.579Z,99607.47
2022-08-26T23:19:30.124Z,99600.44
2022-08-26T23:21:58.573Z,99601.94
2022-08-26T23:24:28.641Z,99608.88
2022-08-26T23:26:57.108Z,99591.53
2022-08-26T23:29:25.765Z,99607.22
2022-08-26T23:31:55.721Z,99607.94
2022-08-26T23:34:41.349Z,99610.06
2022-08-26T23:37:10.532Z,99610.50
2022-08-26T23:39:40.553Z,99608.28
2022-08-26T23:42:09.581Z,99610.38
2022-08-26T23:44:38.167Z,99606.75
2022-08-26T23:47:07.668Z,99602.06
2022-08-26T23:49:37.164Z,99609.22
2022-08-26T23:52:24.603Z,99610.50
2022-08-26T23:54:54.810Z,99614.13
2022-08-26T23:57:25.133Z,99595.84
2022-08-26T23:59:54.416Z,99606.25
